»·PEaware :: AAL6424 KLAS-KLAX

AAL6424 :: KLAS-KLAX

FLIGHT INFORMATION

Flight Status: Arrived
Operator:
American Airlines
More flights by this operator :: More flights under this callsign
Pilot: Brandon B. (12233)
Aircraft: BOEING 757-200
(B752)
More flights by this aircraft type
Origin: KLAS McCarran Intl
United States
Destination: KLAX Los Angeles Intl
United States
More flights between these airports :: More routes between these airports
Route: +BOACH8 RIKII SHTNR ANJLL2
File this flight plan on PilotEdge
Remarks:
Altitude:
(Current/Filed)
30,000ft
Speed:
(Current/Filed)
0kts
Departed: 05-Dec-17 09:43 AM
Arrived: 05-Dec-17 10:27 AM
Distance/Time
Traveled:
205nm/0:44
Distance/Time
To Go:
Arrived

Flight Plot

Page will automatically refresh every two minutes.

Flight plan parsing failed; only flown route is shown


Map Options




Map Legend


Flown Route
Filed Route
Departure Airport
Arrival Airport
Navaid (VOR, NDB)
Fix

Horizontal Profiles

Position Reports

Time Latitude Longitude Heading Altitude Ground
Speed
05-Dec-17 09:06 36.079839 -115.140549 57 2152ft 0kts
05-Dec-17 09:07 36.079839 -115.140549 57 2152ft 0kts
05-Dec-17 09:08 36.079839 -115.140549 57 2152ft 0kts
05-Dec-17 09:09 36.079839 -115.140549 57 2152ft 0kts
05-Dec-17 09:10 36.079839 -115.140549 57 2152ft 0kts
05-Dec-17 09:11 36.079839 -115.140549 57 2152ft 0kts
05-Dec-17 09:12 36.079839 -115.140549 57 2152ft 0kts
05-Dec-17 09:13 36.079839 -115.140549 57 2152ft 0kts
05-Dec-17 09:14 36.079839 -115.140549 57 2152ft 0kts
05-Dec-17 09:15 36.079839 -115.140549 57 2152ft 0kts
05-Dec-17 09:16 36.079839 -115.140549 57 2152ft 0kts
05-Dec-17 09:17 36.079839 -115.140549 57 2152ft 0kts
05-Dec-17 09:18 36.079839 -115.140549 57 2152ft 0kts
05-Dec-17 09:19 36.079839 -115.140549 57 2152ft 0kts
05-Dec-17 09:20 36.079839 -115.140549 57 2152ft 0kts
05-Dec-17 09:21 36.079839 -115.140549 57 2152ft 0kts
05-Dec-17 09:22 36.079839 -115.140549 57 2152ft 0kts
05-Dec-17 09:23 36.079839 -115.140549 57 2152ft 0kts
05-Dec-17 09:24 36.079839 -115.140549 57 2152ft 0kts
05-Dec-17 09:25 36.079839 -115.140549 57 2152ft 0kts
05-Dec-17 09:26 36.079839 -115.140549 57 2152ft 0kts
05-Dec-17 09:27 36.079839 -115.140549 57 2152ft 0kts
05-Dec-17 09:28 36.079839 -115.140549 57 2152ft 0kts
05-Dec-17 09:29 36.079839 -115.140549 57 2152ft 0kts
05-Dec-17 09:30 36.079839 -115.140549 57 2152ft 0kts
05-Dec-17 09:31 36.079839 -115.140549 57 2152ft 0kts
05-Dec-17 09:32 36.079839 -115.140549 57 2152ft 0kts
05-Dec-17 09:33 36.079839 -115.140549 57 2152ft 0kts
05-Dec-17 09:34 36.079839 -115.140549 57 2152ft 0kts
05-Dec-17 09:35 36.079839 -115.140549 57 2152ft 0kts
05-Dec-17 09:36 36.079839 -115.140549 57 2152ft 0kts
05-Dec-17 09:37 36.079839 -115.140549 57 2152ft 0kts
05-Dec-17 09:38 36.079784 -115.141182 113 2152ft 2kts
05-Dec-17 09:39 36.080207 -115.141657 147 2153ft 1kts
05-Dec-17 09:40 36.080215 -115.141664 147 2152ft 0kts
05-Dec-17 09:41 36.080215 -115.141664 147 2152ft 0kts
05-Dec-17 09:42 36.079676 -115.141590 179 2152ft 0kts
05-Dec-17 09:43 36.078251 -115.139613 91 2153ft 23kts
05-Dec-17 09:44 36.078266 -115.130496 90 2153ft 23kts
05-Dec-17 09:45 36.078011 -115.122343 123 2152ft 26kts
05-Dec-17 09:46 36.077455 -115.121522 141 2152ft 0kts
05-Dec-17 09:47 36.077195 -115.121346 161 2153ft 11kts
05-Dec-17 09:48 36.076343 -115.140696 269 2249ft 167kts
05-Dec-17 09:49 36.071126 -115.204509 266 4381ft 236kts
05-Dec-17 09:50 36.033604 -115.265754 202 7954ft 260kts
05-Dec-17 09:51 35.961061 -115.299373 190 10405ft 325kts
05-Dec-17 09:52 35.871027 -115.303945 182 13601ft 361kts
05-Dec-17 09:53 35.770431 -115.293310 174 17145ft 380kts
05-Dec-17 09:54 35.663733 -115.292329 200 19620ft 397kts
05-Dec-17 09:55 35.563545 -115.343117 202 22465ft 412kts
05-Dec-17 09:56 35.457199 -115.399881 205 24966ft 428kts
05-Dec-17 09:57 35.348170 -115.458043 203 27301ft 438kts
05-Dec-17 09:58 35.242184 -115.512416 202 29781ft 433kts
05-Dec-17 09:59 35.132835 -115.570255 211 30002ft 430kts
05-Dec-17 10:00 35.050677 -115.666382 226 30000ft 430kts
05-Dec-17 10:01 34.984334 -115.752382 226 30000ft 430kts
05-Dec-17 10:02 34.902778 -115.856851 226 30000ft 430kts
05-Dec-17 10:03 34.821806 -115.960098 226 29999ft 437kts
05-Dec-17 10:04 34.737824 -116.066833 226 30000ft 437kts
05-Dec-17 10:05 34.655558 -116.172055 226 30000ft 437kts
05-Dec-17 10:06 34.572324 -116.278250 227 30000ft 437kts
05-Dec-17 10:07 34.489993 -116.383179 225 28670ft 427kts
05-Dec-17 10:08 34.423488 -116.468466 232 27111ft 418kts
05-Dec-17 10:09 34.362589 -116.605933 243 24899ft 403kts
05-Dec-17 10:10 34.317464 -116.715016 242 23411ft 397kts
05-Dec-17 10:11 34.279367 -116.808198 244 21921ft 385kts
05-Dec-17 10:12 34.233264 -116.922387 243 19805ft 375kts
05-Dec-17 10:13 34.189165 -117.055609 251 18712ft 370kts
05-Dec-17 10:14 34.163569 -117.152313 252 16833ft 367kts
05-Dec-17 10:15 34.134690 -117.264154 252 15308ft 337kts
05-Dec-17 10:16 34.106607 -117.369709 252 13557ft 328kts
05-Dec-17 10:17 34.078785 -117.472794 252 11854ft 319kts
05-Dec-17 10:18 34.047271 -117.565788 248 10277ft 314kts
05-Dec-17 10:19 34.022844 -117.657286 255 9801ft 266kts
05-Dec-17 10:20 34.007486 -117.739526 259 9203ft 262kts
05-Dec-17 10:21 33.995304 -117.827209 261 8097ft 263kts
05-Dec-17 10:22 33.985742 -117.910379 262 7008ft 237kts
05-Dec-17 10:23 33.977936 -117.984617 262 6137ft 218kts
05-Dec-17 10:24 33.971371 -118.049165 263 5264ft 194kts
05-Dec-17 10:25 33.965167 -118.110644 263 4440ft 191kts
05-Dec-17 10:26 33.959477 -118.166735 263 3543ft 158kts
05-Dec-17 10:27 33.954245 -118.218506 263 2833ft 156kts
05-Dec-17 10:28 33.948711 -118.269781 262 2096ft 154kts
05-Dec-17 10:29 33.943483 -118.320437 263 1344ft 154kts
05-Dec-17 10:30 33.938777 -118.367901 262 453ft 148kts
05-Dec-17 10:31 33.934855 -118.406960 263 137ft 45kts
05-Dec-17 10:32 33.937277 -118.412787 358 137ft 0kts
05-Dec-17 10:33 33.937952 -118.412567 17 136ft 21kts
05-Dec-17 10:34 33.939605 -118.402785 44 136ft 19kts

Navigation Log

Ident Type
Flight plan parsing failed, navigation log unavailable